RUNWAY INFORMATION
Runway Length Width Elevation Displaced
Threshold
Heading | Runway Length Width Elevation Displaced
Threshold
Heading
04 4708 ft 98 ft 325 ft 0 ft 50 | 22 4708 ft 98 ft 367 ft 0 ft 230
11 6398 ft 150 ft 321 ft 197 ft 122 | 29 6398 ft 150 ft 366 ft 197 ft 302

 AIRPORT FREQUENCIES
Type CTAF Name CTAF Frequency 118.1 MHZ
Type FSS Name AUCKLAND R Frequency 346.7 MHZ

 AIRPORT NEAR NAVIGATION AIDS
Type VOR-DME Name Norfolk Island Frequency 112400 KHZ
Type NDB Name Norfolk Island Frequency 260 KHZ

 METAR AND TAF INFORMATION
METAR FOR YSNF
ADDS - METARS form results

(2237 UTC 22 January 2021)
Data provider http://aviationweather.gov/metar/data/
 
METAR text: YSNF 222230Z AUTO 12009KT 9999 // NCD 23/13 Q1018 RF00.0/000.0
Conditions at: YSNF (NORFOLK ISLAND A, AU) observed 2230 UTC 22 January 2021
Temperature: 23.0°C (73°F)
Dewpoint: 13.0°C (55°F) [RH = 53%]
Pressure (altimeter): 30.06 inches Hg (1018.0 mb)
Winds: from the ESE (120 degrees) at 10 MPH (9 knots; 4.6 m/s)
Visibility: 6 or more miles (10+ km)
Ceiling: at least 12,000 feet AGL
Clouds: sky clear below 12,000 feet AGL
Weather: no significant weather observed at this time

METAR text: YSNF 222200Z AUTO 13009KT 9999 // NCD 23/13 Q1018
Conditions at: YSNF (NORFOLK ISLAND A, AU) observed 2200 UTC 22 January 2021
Temperature: 23.0°C (73°F)
Dewpoint: 13.0°C (55°F) [RH = 53%]
Pressure (altimeter): 30.06 inches Hg (1018.0 mb)
Winds: from the SE (130 degrees) at 10 MPH (9 knots; 4.6 m/s)
Visibility: 6 or more miles (10+ km)
Ceiling: at least 12,000 feet AGL
Clouds: sky clear below 12,000 feet AGL
Weather: no significant weather observed at this time

Forecast for: YSNF (NORFOLK ISLAND A, AU)
Text: TAF YSNF 221724Z 2218/2318 10012KT 9999 -SHRA SCT015 BKN025
Forecast period: 1800 to 2100 UTC 22 January 2021
Forecast type: FROM: standard forecast or significant change
Winds: from the E (100 degrees) at 14 MPH (12 knots; 6.2 m/s)
Visibility: 6 or more miles (10+ km)
Ceiling: 2500 feet AGL
Clouds: scattered clouds at 1500 feet AGL
broken clouds at 2500 feet AGL
Weather: -SHRA  (light rain showers)
Text: BECMG 2221/2222 12014KT 9999 NSW SCT025 BKN035
Forecast period: 2100 UTC 22 January 2021 to 1800 UTC 23 January 2021
Forecast type: BECOMING: Conditions expected to become as follows by 2200 UTC 22 January 2021
Winds: from the ESE (120 degrees) at 16 MPH (14 knots; 7.2 m/s)
Visibility: 6 or more miles (10+ km)
Ceiling: 3500 feet AGL
Clouds: scattered clouds at 2500 feet AGL
broken clouds at 3500 feet AGL
Weather: NSW  (no significant weather)



© 2013 - 2021, FlightSimLog.org - Powered by Virtual Airlines Manager